Rancho Bernardo, California
Current Conditions -  °F | °C
As of 11:18 PM on Sunday 21 Dec 2014 (Local Time) from KRNM Reporting Station
Clear Clear  
Wind Chill: 47°   Ceiling: Unl
Heat Index: 47°   Visibility: 4mi
Dew Point: 46°   Wind: 3mph
Humidity: 97%   Direction: 360°N
Pressure: 30.06"   Gusts: NA
Location:  33.0024°N, 117.071°W
Report Text: KRNM 220718Z 36003KT 4SM CLR 08/08 A3006 RMK AO2 T00830078
Loading
Personal Weather Stations






























Interactive Weather Map New forecast layout! Learn more

10-Day Weather Forecast

Advertisements
Track Severe Weather on mobile